x

San Clemente Basin - 27nm Se Of San Clemente Is, Ca (46086) Wave Buoy

3:50am - Sat 3rd Dec 2016 All times are PST. -8 hours from GMT.

  • Sig Wave height 5.6ft
  • Swell Direction
  • Peak Period 12s
  • Average Period 6s
  • Wind
    16mph, 20mph gusts
  • Sea Temp 61°f
  • Air Temp 60°f
  • Sea Pressure 1017.5mb
  • San Clemente Basin - 27nm Se Of San Clemente Is, Ca
  • San Clemente Basin - 27nm Se Of San Clemente Is, Ca

More Historic Weather Station data

Upgrade to MSW Pro to gain access to the past 30 days of data for over 8000 Wavebouys and Weather Stations around the globe.

Join Pro

Comparision Forecast

View Surf forecast
   
Sat 12/03 3:50am 5.5ft 12s 6s 16 20 mph 1017.5mb 61f 60f
2:50am 5.5ft 11s 6s 13 18 mph 1017.6mb 61f 60f
1:50am 6ft 12s 6s 18 20 mph 1017.5mb 61f 60f
12:50am 6ft 13s 6s 18 22 mph 1017.1mb 61f 60f
Fri 12/02 11:50pm 6ft 11s 6s 18 20 mph 1017.3mb 61f 60f
10:50pm 6.5ft 11s 6s 16 20 mph 1017.5mb 61f 61f
9:50pm 7ft 11s 6s 20 25 mph 1016.9mb 61f 61f
8:50pm 7.5ft 11s 6s 20 25 mph 1016.5mb 61f 62f
7:50pm 7.5ft 14s 6s 22 27 mph 1016.3mb 62f 62f
6:50pm 7.5ft 13s 7s 20 25 mph 1015.7mb 62f 62f
4:50pm 7.5ft 9s 6s 22 25 mph 1014.9mb 62f 61f
3:50pm 6.5ft 11s 6s 22 29 mph 1014.5mb 62f 62f
2:50pm 6.5ft 14s 7s 18 20 mph 1014.4mb 62f 62f
1:50pm 6.5ft 11s 7s 16 20 mph 1014.2mb 62f 62f
12:50pm 6.5ft 11s 7s 16 18 mph 1014.8mb 62f 61f
10:50am 6ft 14s 7s 11 13 mph 1015.6mb 62f 61f
9:50am 7ft 14s 8s 16 18 mph 1015.6mb 62f 61f
8:50am 7ft 12s 8s 9 11 mph 1015.3mb 62f 61f
7:50am 7ft 10s 8s 13 16 mph 1014.8mb 62f 61f
6:50am 7ft 9s 8s 9 11 mph 1014.2mb 62f 60f
5:50am 6ft 12s 8s 9 11 mph 1013.8mb 62f 60f
4:50am 7ft 13s 8s 7 11 mph 1013.6mb 62f 60f
3:50am 6ft 10s 7s 9 11 mph 1013.4mb 62f 60f
2:50am 6ft 9s 7s 9 11 mph 1013.4mb 62f 60f
1:50am 6ft 9s 7s 11
mph
1013.4mb 62f 60f
12:50am 6ft 11s 7s 11 13 mph 1013.5mb 62f 60f
Thu 12/01 11:50pm 6ft 9s 8s 13 16 mph 1013.7mb 62f 60f
10:50pm 6ft 14s 8s 9 11 mph 1014mb 62f 60f
9:50pm 6ft 13s 9s 9 13 mph 1013.9mb 62f 60f
8:50pm 6ft 13s 8s 7 9 mph 1013.9mb 62f 59f
7:50pm 5.5ft 13s 8s 7 9 mph 1013.9mb 62f 58f
6:50pm 6ft 13s 8s 7 9 mph 1013.9mb 62f 58f
5:50pm 6ft 13s 8s 7 9 mph 1013.6mb 62f 58f
4:50pm 5ft 14s 7s 9 11 mph 1013.5mb 62f 58f
3:50pm 5.5ft 14s 7s 13 16 mph 1013.4mb 62f 58f
2:50pm 5ft 15s 7s 11 13 mph 1013.2mb 62f 58f
1:50pm 4.5ft 14s 6s 9 11 mph 1013.6mb 62f 59f
12:50pm 4.5ft 15s 6s 11 13 mph 1014mb 62f 59f
11:50am 5ft 15s 6s 11 13 mph 1014.7mb 62f 59f
10:50am 4.5ft 15s 6s 11 13 mph 1015.6mb 62f 59f
9:50am 5ft 15s 6s 16 18 mph 1016.2mb 62f 59f
8:50am 5ft 14s 6s 16 18 mph 1015.7mb 62f 59f
7:50am 5ft 13s 6s 11 13 mph 1015.3mb 62f 60f
6:50am 5ft 15s 6s 7 9 mph 1014.8mb 62f 59f
5:50am 5ft 14s 6s 9 11 mph 1014.4mb 62f 59f
4:50am 5ft 14s 6s 7 9 mph 1014.1mb 62f 59f
3:50am 4.5ft 15s 6s 11 13 mph 1014.7mb 62f 59f
2:50am 4.5ft 14s 6s 11 13 mph 1015.2mb 62f 59f
1:50am 4.5ft 15s 7s 13 16 mph 1015.9mb 62f 59f
12:50am 4.5ft 14s 7s 16 18 mph 1016mb 62f 59f
Wed 11/30 11:50pm 4.5ft 15s 8s 11 16 mph 1016.3mb 62f 60f
10:50pm 5ft 15s 8s 9 11 mph 1016.5mb 62f 60f
9:50pm 4.5ft 15s 7s 9 11 mph 1016.3mb 62f 60f
8:50pm 5ft 16s 8s 11 13 mph 1016mb 62f 60f
7:50pm 5ft 16s 7s 13 18 mph 1016mb 62f 60f
6:50pm 5.5ft 15s 8s 16 18 mph 1016.1mb 62f 60f
5:50pm 6ft 15s 8s 13 18 mph 1015.7mb 62f 60f
4:50pm 5ft 16s 8s 13 16 mph 1015.9mb 62f 60f
3:50pm 5ft 16s 8s 11 13 mph 1015.8mb 62f 61f
2:50pm 5ft 16s 8s 9 11 mph 1015.7mb 63f 61f
1:50pm 5ft 15s 9s 7 9 mph 1016.1mb 63f 61f
12:50pm 5.5ft 16s 9s 4 7 mph 1016.9mb 63f 61f
11:50am 5.5ft 16s 9s 4 7 mph 1018.4mb 62f 61f
10:50am 6ft 16s 9s 4 7 mph 1019mb 62f 61f
9:50am 6ft 16s 9s 4 7 mph 1019.3mb 62f 61f
8:50am 6ft 16s 9s 2 4 mph 1018.8mb 62f 61f
7:50am 5ft 17s 8s 7
mph
1018mb 62f 61f
6:50am 6ft 16s 8s 7 9 mph 1018.1mb 62f 61f
5:50am 6ft 17s 9s 4 7 mph 1018.1mb 62f 61f
4:50am 5ft 17s 8s 2 4 mph 1018.2mb 62f 61f
3:50am 5.5ft 17s 8s 4 9 mph 1018.1mb 62f 61f
2:50am 5.5ft 17s 8s 4
mph
1018.1mb 62f 61f
1:50am 5.5ft 17s 8s 2 4 mph 1018.4mb 63f 61f
12:50am 6ft 17s 8s 7 9 mph 1018.6mb 63f 62f
Tue 11/29 11:50pm 6ft 12s 8s 9 11 mph 1018.7mb 63f 62f
10:50pm 5ft 11s 8s 9 11 mph 1018.4mb 63f 62f
9:50pm 5.5ft 11s 8s 13 16 mph 1017.8mb 63f 62f
8:50pm 6ft 11s 8s 9
mph
1017.4mb 63f 62f
7:50pm 6.5ft 11s 8s 9 11 mph 1016.7mb 63f 62f
6:50pm 6.5ft 11s 8s 7 9 mph 1016.1mb 63f 62f
5:50pm 6.5ft 11s 8s 9 11 mph 1015.9mb 63f 61f
4:50pm 6ft 11s 8s 9 11 mph 1015.4mb 63f 61f
3:50pm 6.5ft 10s 8s 4 7 mph 1015.1mb 63f 61f
2:50pm 6.5ft 11s 8s 4
mph
1014.9mb 63f 61f
1:50pm 6.5ft 11s 8s 4 7 mph 1014.9mb 63f 61f
12:50pm 7ft 11s 7s 7 9 mph 1015.5mb 63f 61f